Time;durP1;ratioP1;P1;durP2;ratioP2;P2;SDS_P1;SDS_P2;PMS_P1;PMS_P2;Temp;Humidity;BMP_temperature;BMP_pressure;BME280_temperature;BME280_humidity;BME280_pressure;Samples;Min_cycle;Max_cycle;Signal;HPM_P1;HPM_P2
2023/08/03 00:00:37;;;;;;;1.05;0.60;;;15.90;99.90;;;;;;5076110;28;20096;-79
2023/08/03 00:03:02;;;;;;;0.63;0.50;;;16.40;99.90;;;;;;5093134;28;20505;-79
2023/08/03 00:05:28;;;;;;;0.45;0.45;;;15.90;99.90;;;;;;5092343;28;20477;-79
2023/08/03 00:07:54;;;;;;;0.52;0.50;;;16.20;99.90;;;;;;5075401;28;20044;-79
2023/08/03 00:10:21;;;;;;;0.88;0.60;;;15.70;99.90;;;;;;5076565;28;20043;-79
2023/08/03 00:12:48;;;;;;;0.52;0.40;;;16.50;99.90;;;;;;5092943;28;20044;-79
2023/08/03 00:15:14;;;;;;;1.00;0.57;;;15.60;99.90;;;;;;5075565;28;20501;-79
2023/08/03 00:17:41;;;;;;;0.93;0.50;;;16.20;99.90;;;;;;5090891;28;20047;-80
2023/08/03 00:20:07;;;;;;;;;;;16.30;99.90;;;;;;5093380;28;20108;-79
2023/08/03 00:22:33;;;;;;;0.32;0.32;;;16.60;99.90;;;;;;5091404;28;19916;-79
2023/08/03 00:24:59;;;;;;;1.08;0.50;;;16.50;99.90;;;;;;5073613;28;20471;-79
2023/08/03 00:27:25;;;;;;;;;;;16.20;99.90;;;;;;5093809;28;20471;-79
2023/08/03 00:29:51;;;;;;;0.70;0.40;;;15.50;99.90;;;;;;5093670;28;19973;-79
2023/08/03 00:32:18;;;;;;;0.40;0.30;;;16.00;99.90;;;;;;5075877;28;20478;-79
2023/08/03 00:34:43;;;;;;;0.20;0.20;;;15.40;99.90;;;;;;5076330;28;20118;-79
2023/08/03 00:37:13;;;;;;;0.47;0.30;;;15.40;99.90;;;;;;5076304;28;20122;-79
2023/08/03 00:39:39;;;;;;;0.20;0.13;;;16.70;99.90;;;;;;5093635;28;20058;-79
2023/08/03 00:42:05;;;;;;;0.20;0.20;;;15.70;99.90;;;;;;5091027;28;20114;-79
2023/08/03 00:44:31;;;;;;;0.90;0.50;;;15.50;99.90;;;;;;5092927;28;20039;-79
2023/08/03 00:46:57;;;;;;;;;;;16.40;99.90;;;;;;5093586;28;20436;-79
2023/08/03 00:49:29;;;;;;;0.25;0.25;;;16.80;99.90;;;;;;5093311;28;19916;-79
2023/08/03 00:51:58;;;;;;;0.30;0.20;;;16.60;99.90;;;;;;5088324;28;20038;-79
2023/08/03 00:54:24;;;;;;;0.10;0.10;;;16.60;99.90;;;;;;5106855;28;20047;-79
2023/08/03 00:56:50;;;;;;;0.22;0.20;;;16.60;99.90;;;;;;5107827;28;20047;-78
2023/08/03 00:59:16;;;;;;;0.30;0.30;;;15.50;99.90;;;;;;5089323;28;20111;-78
2023/08/03 01:01:42;;;;;;;0.10;0.10;;;15.70;99.90;;;;;;5092926;28;20055;-78
2023/08/03 01:04:07;;;;;;;;;;;15.60;99.90;;;;;;5091658;28;20040;-78
2023/08/03 01:06:35;;;;;;;0.20;0.20;;;16.80;99.90;;;;;;5090197;28;20000;-78
2023/08/03 01:09:02;;;;;;;0.20;0.10;;;15.40;99.90;;;;;;5086091;28;20567;-78
2023/08/03 01:11:29;;;;;;;0.10;0.10;;;15.40;99.90;;;;;;5091888;28;20100;-79
2023/08/03 01:13:56;;;;;;;0.30;0.20;;;16.70;99.90;;;;;;5091962;28;20039;-79
2023/08/03 01:16:23;;;;;;;0.25;0.20;;;16.70;99.90;;;;;;5091128;28;20035;-79
2023/08/03 01:18:49;;;;;;;0.20;0.20;;;15.50;99.90;;;;;;5092246;28;20044;-79
2023/08/03 01:21:18;;;;;;;;;;;16.20;99.90;;;;;;5090724;28;20078;-79
2023/08/03 01:23:44;;;;;;;0.15;0.15;;;15.60;99.90;;;;;;5091576;28;19923;-79
2023/08/03 01:26:10;;;;;;;0.30;0.20;;;15.70;99.90;;;;;;5091703;28;20074;-79
2023/08/03 01:28:36;;;;;;;0.47;0.20;;;15.50;99.90;;;;;;5091633;28;20032;-79
2023/08/03 01:31:02;;;;;;;0.10;0.10;;;16.90;99.90;;;;;;5091952;28;20424;-79
2023/08/03 01:33:27;;;;;;;0.10;0.10;;;16.90;99.90;;;;;;5090711;28;20546;-78
2023/08/03 01:35:53;;;;;;;0.28;0.15;;;16.50;99.90;;;;;;5090835;28;20123;-78
2023/08/03 01:38:19;;;;;;;0.40;0.17;;;16.00;99.90;;;;;;5091640;28;20072;-79
2023/08/03 01:40:44;;;;;;;0.47;0.28;;;16.00;99.90;;;;;;5090785;28;20123;-78
2023/08/03 01:43:10;;;;;;;0.32;0.20;;;16.70;99.90;;;;;;5089730;28;20040;-78
2023/08/03 01:45:36;;;;;;;0.20;0.20;;;15.30;99.90;;;;;;5090630;28;20491;-78
2023/08/03 01:48:02;;;;;;;;;;;16.70;99.90;;;;;;5076453;28;20065;-79
2023/08/03 01:50:28;;;;;;;0.10;0.10;;;15.60;99.90;;;;;;5095769;28;19919;-78
2023/08/03 01:52:53;;;;;;;0.85;0.30;;;15.50;99.90;;;;;;5093814;28;20074;-79
2023/08/03 01:55:19;;;;;;;0.10;0.10;;;15.80;99.90;;;;;;5075741;28;20039;-79
2023/08/03 01:57:45;;;;;;;0.30;0.20;;;17.40;99.90;;;;;;5094526;28;20111;-79
2023/08/03 02:00:11;;;;;;;0.20;0.20;;;15.60;99.90;;;;;;5057448;28;20043;-79
2023/08/03 02:02:36;;;;;;;0.10;0.10;;;17.00;99.90;;;;;;5091783;28;20553;-79
2023/08/03 02:05:03;;;;;;;0.38;0.20;;;17.60;99.90;;;;;;5073072;28;20127;-79
2023/08/03 02:07:46;;;;;;;0.15;0.10;;;15.40;99.90;;;;;;5093948;28;20047;-78
2023/08/03 02:10:14;;;;;;;0.10;0.10;;;17.30;99.90;;;;;;5092978;28;20034;-78
2023/08/03 02:12:40;;;;;;;0.10;0.10;;;15.60;99.90;;;;;;5091737;28;20044;-79
2023/08/03 02:15:06;;;;;;;0.15;0.10;;;17.20;99.90;;;;;;5092665;28;20035;-79
2023/08/03 02:17:33;;;;;;;0.20;0.20;;;15.50;99.90;;;;;;5093675;28;20490;-78
2023/08/03 02:19:58;;;;;;;0.10;0.10;;;16.30;99.90;;;;;;5076432;28;20533;-79
2023/08/03 02:22:24;;;;;;;0.35;0.20;;;17.50;99.90;;;;;;5095851;28;20069;-78
2023/08/03 02:24:50;;;;;;;0.30;0.20;;;15.10;99.90;;;;;;5077810;28;20072;-79
2023/08/03 02:27:15;;;;;;;0.20;0.17;;;17.50;99.90;;;;;;5090294;28;20076;-79
2023/08/03 02:29:41;;;;;;;;;;;17.10;99.90;;;;;;5095605;28;20097;-79
2023/08/03 02:32:07;;;;;;;0.20;0.20;;;15.70;99.90;;;;;;5097219;28;19916;-79
2023/08/03 02:34:32;;;;;;;;;;;15.60;99.90;;;;;;5097600;28;20462;-79
2023/08/03 02:36:58;;;;;;;0.45;0.10;;;15.40;99.90;;;;;;5097698;28;19915;-79
2023/08/03 02:39:24;;;;;;;;;;;15.40;99.90;;;;;;5097878;28;20039;-79
2023/08/03 02:41:49;;;;;;;0.10;0.10;;;17.40;99.90;;;;;;5097168;28;19920;-79
2023/08/03 02:44:15;;;;;;;0.35;0.20;;;17.30;99.90;;;;;;5097031;28;20039;-79
2023/08/03 02:46:41;;;;;;;0.20;0.10;;;17.50;99.90;;;;;;5097420;28;20092;-79
2023/08/03 02:49:06;;;;;;;0.30;0.20;;;16.10;99.90;;;;;;5097450;28;20043;-79
2023/08/03 02:51:32;;;;;;;0.22;0.17;;;16.40;99.90;;;;;;5097610;28;20130;-79
2023/08/03 02:53:58;;;;;;;0.28;0.25;;;15.80;99.90;;;;;;5080025;28;20547;-79
2023/08/03 02:56:23;;;;;;;0.63;0.20;;;17.50;99.90;;;;;;5061806;28;20433;-79
2023/08/03 02:58:49;;;;;;;0.20;0.20;;;15.40;99.90;;;;;;5075927;28;20398;-79
2023/08/03 03:01:16;;;;;;;0.20;0.20;;;15.50;99.90;;;;;;5078003;28;20062;-79
2023/08/03 03:03:43;;;;;;;0.45;0.40;;;17.00;99.90;;;;;;5093277;28;20044;-78
2023/08/03 03:06:08;;;;;;;0.52;0.30;;;15.30;99.90;;;;;;5093409;28;20127;-80
2023/08/03 03:08:34;;;;;;;0.30;0.30;;;17.40;99.90;;;;;;5097011;28;20046;-79
2023/08/03 03:11:00;;;;;;;0.57;0.28;;;17.10;99.90;;;;;;5097265;28;20152;-79
2023/08/03 03:13:25;;;;;;;;;;;17.20;99.90;;;;;;5063654;28;20067;-79
2023/08/03 03:15:51;;;;;;;0.20;0.20;;;15.80;99.90;;;;;;5096528;28;20292;-79
2023/08/03 03:18:17;;;;;;;;;;;15.70;99.90;;;;;;5077446;28;20160;-79
2023/08/03 03:20:42;;;;;;;0.60;0.30;;;15.40;99.90;;;;;;5091369;28;20301;-79
2023/08/03 03:23:08;;;;;;;0.22;0.22;;;16.60;99.90;;;;;;5097286;28;20051;-79
2023/08/03 03:25:34;;;;;;;0.47;0.30;;;17.10;99.90;;;;;;5079242;28;20043;-79
2023/08/03 03:28:04;;;;;;;0.30;0.30;;;16.90;99.90;;;;;;5096373;28;20046;-79
2023/08/03 03:30:33;;;;;;;0.40;0.40;;;15.80;99.90;;;;;;5076882;28;20050;-79
2023/08/03 03:32:59;;;;;;;0.40;0.40;;;17.30;99.90;;;;;;5079941;28;20086;-79
2023/08/03 03:35:25;;;;;;;0.40;0.40;;;15.90;99.90;;;;;;5088999;28;20491;-78
2023/08/03 03:37:51;;;;;;;;;;;16.50;99.90;;;;;;5095215;28;20065;-78
2023/08/03 03:40:16;;;;;;;0.40;0.40;;;16.30;99.90;;;;;;5095853;28;19922;-79
2023/08/03 03:42:42;;;;;;;0.57;0.45;;;17.20;99.90;;;;;;5096036;28;20039;-79
2023/08/03 03:45:08;;;;;;;0.50;0.43;;;15.50;99.90;;;;;;5096036;28;20039;-78
2023/08/03 03:47:34;;;;;;;0.65;0.45;;;15.40;99.90;;;;;;5095444;28;20047;-79
2023/08/03 03:49:59;;;;;;;;;;;15.40;99.90;;;;;;5096398;28;20044;-78
2023/08/03 03:52:25;;;;;;;0.63;0.60;;;15.50;99.90;;;;;;5079217;28;19919;-79
2023/08/03 03:54:51;;;;;;;0.55;0.55;;;15.40;99.90;;;;;;5095054;28;20042;-79
2023/08/03 03:57:16;;;;;;;0.60;0.60;;;17.00;99.90;;;;;;5095735;28;20047;-79
2023/08/03 03:59:42;;;;;;;0.70;0.70;;;16.30;99.90;;;;;;5074672;28;20044;-81
2023/08/03 04:02:07;;;;;;;0.52;0.52;;;15.90;99.90;;;;;;5070921;28;20083;-79
2023/08/03 04:04:33;;;;;;;0.70;0.70;;;16.30;99.90;;;;;;5086976;28;20056;-79
2023/08/03 04:06:59;;;;;;;0.70;0.70;;;16.00;99.90;;;;;;5037791;28;20045;-78
2023/08/03 04:09:24;;;;;;;;;;;15.40;99.90;;;;;;5075032;28;20795;-78
2023/08/03 04:11:50;;;;;;;1.05;0.90;;;16.30;99.90;;;;;;5069029;28;19923;-79
2023/08/03 04:14:16;;;;;;;0.70;0.65;;;16.80;99.90;;;;;;5045330;28;20123;-79
2023/08/03 04:16:41;;;;;;;1.33;1.15;;;17.00;99.90;;;;;;5068389;28;20119;-78
2023/08/03 04:19:07;;;;;;;1.00;1.00;;;17.20;99.90;;;;;;5069655;28;20119;-78
2023/08/03 04:21:33;;;;;;;1.20;0.90;;;15.90;99.90;;;;;;5069610;28;20394;-78
2023/08/03 04:23:58;;;;;;;1.50;1.33;;;17.30;99.90;;;;;;5068277;28;20084;-78
2023/08/03 04:26:24;;;;;;;;;;;16.10;99.90;;;;;;5069551;28;20044;-79
2023/08/03 04:28:49;;;;;;;1.80;1.30;;;17.10;99.90;;;;;;5085170;28;19930;-79
2023/08/03 04:31:15;;;;;;;;;;;16.50;99.90;;;;;;5071658;28;20052;-78
2023/08/03 04:33:41;;;;;;;1.10;1.00;;;15.70;99.90;;;;;;5069578;28;20019;-79
2023/08/03 04:36:06;;;;;;;1.77;1.20;;;17.60;99.90;;;;;;5037721;28;20402;-78
2023/08/03 04:38:32;;;;;;;0.77;0.77;;;15.60;99.90;;;;;;5036542;28;20051;-79
2023/08/03 04:41:00;;;;;;;1.73;1.30;;;17.10;99.90;;;;;;5052142;28;20110;-78
2023/08/03 04:43:27;;;;;;;1.30;1.20;;;15.60;99.90;;;;;;5087294;28;20048;-78
2023/08/03 04:45:53;;;;;;;1.40;1.30;;;17.60;99.90;;;;;;5054720;28;20059;-78
2023/08/03 04:48:18;;;;;;;2.63;1.25;;;17.70;99.90;;;;;;5068003;28;20029;-79
2023/08/03 04:50:44;;;;;;;2.08;1.52;;;17.50;99.90;;;;;;5070648;28;20072;-79
2023/08/03 04:53:10;;;;;;;2.10;1.60;;;16.70;99.90;;;;;;5049184;28;20043;-79
2023/08/03 04:55:36;;;;;;;1.98;1.50;;;17.40;99.90;;;;;;5064111;28;20101;-79
2023/08/03 04:58:02;;;;;;;5.15;2.03;;;17.70;99.90;;;;;;5052456;28;20080;-79
2023/08/03 05:00:27;;;;;;;;;;;15.70;99.90;;;;;;5083695;28;20067;-79
2023/08/03 05:02:53;;;;;;;2.72;1.58;;;17.10;99.90;;;;;;5084990;28;19923;-79
2023/08/03 05:05:19;;;;;;;;;;;17.30;99.90;;;;;;5080143;28;20059;-78
2023/08/03 05:07:44;;;;;;;2.72;1.60;;;17.30;99.90;;;;;;5052542;28;19916;-79
2023/08/03 05:10:10;;;;;;;3.17;2.25;;;16.10;99.90;;;;;;5074074;28;20581;-79
2023/08/03 05:12:38;;;;;;;;;;;16.30;99.90;;;;;;5071145;28;20040;-79
2023/08/03 05:15:04;;;;;;;3.53;2.25;;;16.10;99.90;;;;;;5069245;28;19923;-80
2023/08/03 05:17:30;;;;;;;2.17;1.98;;;17.70;99.90;;;;;;5053849;28;20043;-80
2023/08/03 05:19:55;;;;;;;;;;;17.40;99.90;;;;;;5062986;28;20044;-78
2023/08/03 05:22:21;;;;;;;2.67;2.30;;;17.80;99.90;;;;;;5070046;28;19916;-79
2023/08/03 05:24:47;;;;;;;3.20;2.30;;;16.30;99.90;;;;;;5070928;28;20448;-79
2023/08/03 05:27:12;;;;;;;3.58;2.58;;;17.50;99.90;;;;;;5068967;28;20040;-78
2023/08/03 05:29:38;;;;;;;;;;;17.30;99.90;;;;;;5054602;28;20036;-79
2023/08/03 05:32:04;;;;;;;3.90;3.50;;;17.40;99.90;;;;;;5050792;28;19923;-78
2023/08/03 05:34:31;;;;;;;4.28;3.50;;;16.60;99.90;;;;;;5065711;28;20048;-78
2023/08/03 05:36:56;;;;;;;4.22;3.45;;;15.90;99.90;;;;;;5066159;28;20040;-78
2023/08/03 05:39:24;;;;;;;;;;;15.70;99.90;;;;;;5069240;28;20051;-78
2023/08/03 05:41:50;;;;;;;4.45;3.45;;;17.80;99.90;;;;;;5065984;28;19927;-80
2023/08/03 05:44:16;;;;;;;3.95;2.97;;;15.90;99.90;;;;;;5068038;28;20048;-80
2023/08/03 05:46:42;;;;;;;4.10;3.20;;;15.70;99.90;;;;;;5070581;28;20075;-80
2023/08/03 05:49:08;;;;;;;;;;;16.10;99.90;;;;;;5080064;28;20041;-79
2023/08/03 05:51:34;;;;;;;4.05;3.22;;;16.80;99.90;;;;;;5072639;28;19943;-81
2023/08/03 05:54:00;;;;;;;3.28;2.97;;;15.90;99.90;;;;;;5070181;28;20049;-81
2023/08/03 05:56:25;;;;;;;3.20;2.90;;;17.10;99.90;;;;;;5067145;28;20043;-81
2023/08/03 05:58:52;;;;;;;;;;;16.80;99.90;;;;;;5051607;28;20055;-81
2023/08/03 06:01:22;;;;;;;3.63;3.20;;;17.30;99.90;;;;;;5066329;28;19916;-82
2023/08/03 06:03:51;;;;;;;3.65;3.08;;;15.70;99.90;;;;;;5070832;28;20040;-81
2023/08/03 06:06:21;;;;;;;3.58;3.28;;;16.10;99.90;;;;;;5086969;28;20043;-80
2023/08/03 06:08:52;;;;;;;3.72;3.20;;;17.50;99.90;;;;;;5089286;28;20069;-82
2023/08/03 06:11:20;;;;;;;4.15;3.08;;;15.80;99.90;;;;;;5091262;28;20043;-80
2023/08/03 06:13:46;;;;;;;4.13;3.15;;;17.60;99.90;;;;;;5090878;28;20078;-80
2023/08/03 06:16:13;;;;;;;4.43;3.25;;;17.00;99.90;;;;;;5071992;28;20040;-80
2023/08/03 06:18:49;;;;;;;4.10;3.28;;;17.40;99.90;;;;;;5078358;28;20475;-80
2023/08/03 06:21:17;;;;;;;3.00;2.70;;;17.70;99.90;;;;;;5090877;28;20055;-80
2023/08/03 06:23:48;;;;;;;3.35;3.00;;;15.90;99.90;;;;;;5091262;28;20395;-81
2023/08/03 06:26:16;;;;;;;3.10;2.50;;;16.60;99.90;;;;;;5091176;28;20093;-80
2023/08/03 06:28:43;;;;;;;2.78;2.53;;;16.20;99.90;;;;;;5080744;28;20048;-80
2023/08/03 06:31:39;;;;;;;3.25;2.95;;;17.60;99.90;;;;;;5090895;28;20119;-80
2023/08/03 06:34:05;;;;;;;3.53;3.20;;;17.40;99.90;;;;;;5077165;28;20088;-81
2023/08/03 06:36:31;;;;;;;4.03;3.30;;;16.10;99.90;;;;;;5094407;28;20136;-81
2023/08/03 06:38:57;;;;;;;;;;;17.30;99.90;;;;;;5094981;28;20094;-81
2023/08/03 06:41:24;;;;;;;4.40;3.17;;;16.50;99.90;;;;;;5095094;28;19920;-80
2023/08/03 06:43:54;;;;;;;2.97;2.78;;;16.20;99.90;;;;;;5094971;28;20050;-81
2023/08/03 06:46:19;;;;;;;3.53;2.72;;;16.60;99.90;;;;;;5095149;28;20398;-80
2023/08/03 06:48:45;;;;;;;;;;;16.60;99.90;;;;;;5077937;28;20040;-81
2023/08/03 06:51:11;;;;;;;3.05;2.75;;;16.40;99.90;;;;;;5094397;28;19916;-81
2023/08/03 06:53:37;;;;;;;3.78;2.90;;;16.90;99.90;;;;;;5094367;28;20051;-81
2023/08/03 06:56:03;;;;;;;;;;;17.70;99.90;;;;;;5094978;28;20105;-81
2023/08/03 06:58:28;;;;;;;3.38;2.50;;;16.90;99.90;;;;;;5094024;28;19923;-77
2023/08/03 07:00:54;;;;;;;3.03;2.70;;;16.30;99.90;;;;;;5075264;28;20040;-77
2023/08/03 07:03:20;;;;;;;3.10;2.80;;;16.60;99.90;;;;;;5072434;28;20170;-77
2023/08/03 07:05:46;;;;;;;3.20;2.30;;;16.70;99.90;;;;;;5090267;28;20060;-77
2023/08/03 07:08:12;;;;;;;2.50;2.30;;;16.50;99.90;;;;;;5074727;28;20044;-77
2023/08/03 07:10:37;;;;;;;2.65;2.30;;;17.70;99.90;;;;;;5074574;28;20047;-77
2023/08/03 07:13:03;;;;;;;;;;;17.30;99.90;;;;;;5091837;28;20123;-77
2023/08/03 07:15:33;;;;;;;3.75;2.70;;;17.60;99.90;;;;;;5092323;28;20027;-77
2023/08/03 07:18:04;;;;;;;3.25;2.50;;;17.30;99.90;;;;;;5091630;28;20044;-77
2023/08/03 07:20:29;;;;;;;2.38;2.17;;;17.50;99.90;;;;;;5075050;28;20033;-77
2023/08/03 07:22:55;;;;;;;;;;;17.10;99.90;;;;;;5075248;28;20661;-77
2023/08/03 07:25:21;;;;;;;3.08;1.80;;;17.20;99.90;;;;;;5076844;28;19969;-81
2023/08/03 07:27:47;;;;;;;4.25;2.22;;;17.90;99.90;;;;;;5076704;28;20048;-81
2023/08/03 07:30:12;;;;;;;3.20;2.05;;;17.60;99.90;;;;;;5076795;28;20040;-80
2023/08/03 07:32:38;;;;;;;;;;;18.30;99.90;;;;;;5093671;28;20043;-80
2023/08/03 07:35:04;;;;;;;4.10;1.48;;;17.80;99.90;;;;;;5076659;28;19974;-80
2023/08/03 07:37:29;;;;;;;;;;;17.60;99.90;;;;;;5077172;28;20047;-79
2023/08/03 07:39:56;;;;;;;1.75;0.90;;;17.60;99.90;;;;;;5057707;28;20484;-80
2023/08/03 07:42:24;;;;;;;0.93;0.80;;;17.80;99.90;;;;;;5080022;28;20140;-80
2023/08/03 07:44:53;;;;;;;1.60;0.80;;;18.20;99.90;;;;;;5072279;28;20041;-80
2023/08/03 07:47:20;;;;;;;2.45;1.00;;;18.20;99.90;;;;;;5091878;28;20036;-80
2023/08/03 07:49:45;;;;;;;2.38;1.10;;;18.20;99.90;;;;;;5069829;28;20048;-80
2023/08/03 07:52:11;;;;;;;;;;;18.20;99.90;;;;;;5083643;28;20043;-77
2023/08/03 07:54:37;;;;;;;2.38;0.88;;;18.20;99.90;;;;;;5092634;28;19927;-77
2023/08/03 07:57:03;;;;;;;;;;;18.50;99.90;;;;;;5091151;28;20475;-77
2023/08/03 07:59:29;;;;;;;3.08;1.20;;;18.60;99.90;;;;;;5090575;28;19920;-77
2023/08/03 08:01:54;;;;;;;;;;;18.40;99.90;;;;;;5091156;28;20040;-77
2023/08/03 08:04:20;;;;;;;2.50;1.38;;;18.40;99.90;;;;;;5092022;28;20007;-77
2023/08/03 08:06:46;;;;;;;;;;;18.50;99.90;;;;;;5061209;28;20155;-77
2023/08/03 08:09:11;;;;;;;1.40;1.10;;;18.40;99.90;;;;;;5093940;28;19923;-77
2023/08/03 08:11:37;;;;;;;;;;;18.70;99.90;;;;;;5077663;28;20594;-78
2023/08/03 08:14:02;;;;;;;3.20;1.20;;;18.80;99.90;;;;;;5093813;28;20297;-78
2023/08/03 08:16:28;;;;;;;;;;;18.90;99.90;;;;;;5094137;28;20054;-78
2023/08/03 08:18:54;;;;;;;5.57;1.17;;;18.90;99.90;;;;;;5093656;28;19954;-77
2023/08/03 08:21:19;;;;;;;;;;;18.80;99.90;;;;;;5094085;28;20092;-77
2023/08/03 08:23:45;;;;;;;3.63;1.10;;;18.70;99.90;;;;;;5076576;28;19916;-80
2023/08/03 08:26:12;;;;;;;;;;;18.50;99.90;;;;;;5057247;28;20043;-80
2023/08/03 08:28:37;;;;;;;5.23;1.20;;;18.40;99.90;;;;;;5093570;28;19926;-80
2023/08/03 08:31:03;;;;;;;;;;;18.40;99.90;;;;;;5094485;28;20036;-78
2023/08/03 08:33:28;;;;;;;3.70;1.45;;;18.40;99.90;;;;;;5093118;28;20367;-78
2023/08/03 08:35:54;;;;;;;;;;;18.60;99.90;;;;;;5056797;28;20044;-78
2023/08/03 08:38:20;;;;;;;3.65;1.00;;;19.00;99.90;;;;;;5088498;28;19923;-78
2023/08/03 08:40:45;;;;;;;;;;;19.10;99.90;;;;;;5093785;28;20126;-78
2023/08/03 08:43:11;;;;;;;3.33;0.75;;;19.10;99.90;;;;;;5093394;28;19926;-78
2023/08/03 08:45:37;;;;;;;;;;;19.00;99.90;;;;;;5094013;28;20557;-78
2023/08/03 08:48:04;;;;;;;2.50;0.80;;;19.20;99.90;;;;;;5092929;28;19927;-78
2023/08/03 08:50:30;;;;;;;3.80;1.00;;;19.50;99.90;;;;;;5093368;28;20047;-78
2023/08/03 08:52:57;;;;;;;3.80;1.02;;;19.40;99.90;;;;;;5092972;28;20108;-77
2023/08/03 08:55:23;;;;;;;4.50;1.00;;;19.40;99.90;;;;;;5093467;28;20610;-78
2023/08/03 08:57:51;;;;;;;2.60;1.10;;;19.60;99.90;;;;;;5092397;28;20387;-78
2023/08/03 09:00:18;;;;;;;1.58;0.70;;;19.90;99.90;;;;;;5093174;28;20054;-78
2023/08/03 09:02:43;;;;;;;4.50;1.00;;;20.00;99.90;;;;;;5092716;28;20486;-78
2023/08/03 09:05:17;;;;;;;4.90;1.17;;;19.90;99.90;;;;;;5075701;28;20063;-78
2023/08/03 09:07:44;;;;;;;2.63;0.90;;;19.80;99.90;;;;;;5092842;28;20432;-78
2023/08/03 09:10:10;;;;;;;2.80;1.00;;;19.80;93.60;;;;;;5092914;28;20040;-80
2023/08/03 09:12:38;;;;;;;2.67;1.10;;;19.90;92.20;;;;;;5092824;28;20041;-80
2023/08/03 09:15:05;;;;;;;5.18;1.20;;;20.10;99.90;;;;;;5092724;28;20043;-81
2023/08/03 09:17:31;;;;;;;3.72;1.30;;;20.10;24.20;;;;;;5092719;28;20051;-81
2023/08/03 09:19:56;;;;;;;3.80;1.20;;;20.10;1.00;;;;;;5092837;28;20184;-81
2023/08/03 09:22:24;;;;;;;6.28;1.65;;;20.30;99.90;;;;;;5072469;28;20040;-80
2023/08/03 09:25:04;;;;;;;2.95;1.20;;;20.50;1.00;;;;;;5088760;28;20114;-81
2023/08/03 09:27:29;;;;;;;5.88;1.60;;;20.70;1.00;;;;;;5092678;28;20495;-80
2023/08/03 09:30:03;;;;;;;5.07;1.40;;;21.00;99.90;;;;;;5092476;28;20050;-80
2023/08/03 09:32:36;;;;;;;4.40;1.38;;;20.90;99.90;;;;;;5092435;28;20440;-80
2023/08/03 09:35:02;;;;;;;3.28;1.27;;;20.80;99.90;;;;;;5075975;28;20070;-80
2023/08/03 09:37:35;;;;;;;3.20;1.10;;;20.50;68.30;;;;;;5075836;28;20518;-81
2023/08/03 09:40:04;;;;;;;3.47;1.50;;;20.30;99.90;;;;;;5092676;28;20047;-80
2023/08/03 09:42:33;;;;;;;4.35;1.42;;;20.40;99.90;;;;;;5092774;28;20043;-80
2023/08/03 09:45:03;;;;;;;4.25;1.30;;;20.60;1.00;;;;;;5075391;28;20510;-80
2023/08/03 09:47:30;;;;;;;4.18;1.30;;;20.70;99.90;;;;;;5092378;28;20047;-80
2023/08/03 09:49:57;;;;;;;2.85;1.45;;;21.00;99.90;;;;;;5092168;28;20260;-80
2023/08/03 09:52:28;;;;;;;5.43;1.58;;;21.40;99.90;;;;;;5092329;28;20119;-80
2023/08/03 09:55:05;;;;;;;3.72;1.30;;;21.70;99.90;;;;;;5075710;28;20047;-80
2023/08/03 09:57:37;;;;;;;2.63;1.23;;;21.40;99.90;;;;;;5092062;28;20055;-80
2023/08/03 10:00:07;;;;;;;4.47;1.35;;;21.30;1.00;;;;;;5092449;28;20054;-80
2023/08/03 10:02:50;;;;;;;3.97;1.48;;;21.00;99.90;;;;;;5092245;28;20099;-80
2023/08/03 10:05:20;;;;;;;2.60;1.02;;;21.30;99.90;;;;;;5091959;28;20060;-81
2023/08/03 10:08:08;;;;;;;4.50;1.30;;;21.50;99.90;;;;;;5075674;28;20051;-78
2023/08/03 10:10:43;;;;;;;3.25;1.13;;;21.40;8.40;;;;;;5079447;28;20422;-78
2023/08/03 10:13:08;;;;;;;3.25;1.30;;;21.60;99.90;;;;;;5096157;28;20398;-79
2023/08/03 10:15:34;;;;;;;5.38;1.40;;;21.80;99.90;;;;;;5096472;28;20062;-79
2023/08/03 10:18:01;;;;;;;2.63;1.08;;;22.00;62.20;;;;;;5096000;28;20044;-78
2023/08/03 10:20:27;;;;;;;2.08;0.90;;;22.20;99.90;;;;;;5096020;28;20502;-78
2023/08/03 10:23:09;;;;;;;2.95;1.15;;;22.50;99.90;;;;;;5095726;28;20048;-78
2023/08/03 10:25:51;;;;;;;2.83;1.10;;;22.40;99.90;;;;;;5095989;28;20109;-79
2023/08/03 10:28:16;;;;;;;3.88;1.10;;;22.30;99.90;;;;;;5095868;28;20039;-78
2023/08/03 10:31:01;;;;;;;4.07;1.40;;;22.00;18.80;;;;;;5096055;28;20399;-78
2023/08/03 10:33:46;;;;;;;6.82;1.48;;;21.60;99.90;;;;;;5095792;28;20374;-78
2023/08/03 10:36:38;;;;;;;5.45;1.38;;;21.30;99.90;;;;;;5095804;28;20047;-79
2023/08/03 10:39:09;;;;;;;5.57;1.65;;;21.40;1.00;;;;;;5079816;28;20383;-78
2023/08/03 10:41:38;;;;;;;3.30;1.20;;;21.20;99.90;;;;;;5089866;28;20052;-78
2023/08/03 10:44:09;;;;;;;5.78;1.50;;;21.10;99.90;;;;;;5095453;28;20075;-78
2023/08/03 10:46:48;;;;;;;4.78;1.50;;;20.90;1.00;;;;;;5095828;28;20490;-78
2023/08/03 10:49:20;;;;;;;5.70;1.60;;;20.70;3.70;;;;;;5081966;28;20115;-78
2023/08/03 10:51:49;;;;;;;5.28;1.50;;;20.60;99.90;;;;;;5078342;28;20192;-78
2023/08/03 10:54:28;;;;;;;3.67;1.30;;;20.30;6.60;;;;;;5078370;28;20043;-78
2023/08/03 10:57:04;;;;;;;2.88;1.10;;;20.10;5.20;;;;;;5078551;28;20122;-78
2023/08/03 10:59:37;;;;;;;;;;;20.10;99.90;;;;;;5095609;28;20039;-78
2023/08/03 11:02:25;;;;;;;4.22;1.10;;;20.30;99.90;;;;;;5061706;28;19942;-78
2023/08/03 11:04:59;;;;;;;3.63;1.08;;;20.80;99.90;;;;;;5094974;28;20091;-78
2023/08/03 11:07:40;;;;;;;5.03;1.10;;;21.30;1.00;;;;;;5095223;28;20036;-78
2023/08/03 11:10:16;;;;;;;3.97;1.15;;;21.50;99.90;;;;;;5095211;28;20043;-78
2023/08/03 11:12:44;;;;;;;2.83;0.90;;;21.20;99.90;;;;;;5073800;28;20044;-78
2023/08/03 11:15:15;;;;;;;3.05;0.88;;;21.20;1.00;;;;;;5093360;28;20048;-78
2023/08/03 11:17:40;;;;;;;1.58;0.70;;;20.90;99.90;;;;;;5077679;28;20043;-78
2023/08/03 11:20:07;;;;;;;2.95;0.98;;;20.80;10.50;;;;;;5093562;28;20050;-78
2023/08/03 11:22:33;;;;;;;2.55;0.90;;;20.70;1.00;;;;;;5077950;28;20049;-78
2023/08/03 11:25:02;;;;;;;2.35;0.70;;;20.80;99.90;;;;;;5094485;28;20050;-78
2023/08/03 11:27:29;;;;;;;2.75;0.82;;;20.80;99.90;;;;;;5074297;28;20039;-78
2023/08/03 11:29:56;;;;;;;2.45;0.70;;;20.80;99.90;;;;;;5090708;28;20495;-78
2023/08/03 11:32:24;;;;;;;1.90;0.68;;;21.00;99.90;;;;;;5061275;28;20227;-78
2023/08/03 11:34:58;;;;;;;3.00;1.00;;;21.60;99.90;;;;;;5094387;28;20039;-78
2023/08/03 11:37:26;;;;;;;4.65;0.98;;;21.90;93.10;;;;;;5077477;28;20213;-78
2023/08/03 11:39:52;;;;;;;3.45;0.80;;;22.10;41.00;;;;;;5074079;28;20051;-78
2023/08/03 11:42:18;;;;;;;1.50;0.70;;;22.00;1.00;;;;;;5077472;28;20351;-79
2023/08/03 11:44:47;;;;;;;1.88;0.90;;;21.90;1.00;;;;;;5077558;28;20138;-78
2023/08/03 11:47:13;;;;;;;2.38;0.80;;;21.80;99.90;;;;;;5077329;28;20071;-78
2023/08/03 11:49:38;;;;;;;3.33;0.80;;;21.90;99.90;;;;;;5094016;28;20092;-78
2023/08/03 11:52:04;;;;;;;3.28;0.80;;;22.00;99.90;;;;;;5073874;28;20037;-78
2023/08/03 11:54:37;;;;;;;3.28;0.85;;;22.00;1.00;;;;;;5092575;28;20111;-78
2023/08/03 11:59:48;;;;;;;1.33;0.77;;;21.70;99.90;;;;;;5097238;28;20409;-78
2023/08/03 12:02:14;;;;;;;2.45;0.90;;;22.20;99.90;;;;;;5073593;28;20123;-78
2023/08/03 12:04:41;;;;;;;3.22;1.00;;;22.20;99.90;;;;;;5091685;28;20126;-78
2023/08/03 12:07:07;;;;;;;4.13;1.10;;;22.20;1.00;;;;;;5076880;28;20051;-78
2023/08/03 12:09:40;;;;;;;2.90;1.02;;;22.30;50.90;;;;;;5076971;28;20039;-78
2023/08/03 12:12:11;;;;;;;2.72;1.10;;;22.30;99.90;;;;;;5077154;28;20457;-78
2023/08/03 12:14:37;;;;;;;1.88;0.90;;;22.40;1.00;;;;;;5075404;28;20506;-78
2023/08/03 12:17:09;;;;;;;3.30;1.23;;;22.70;99.90;;;;;;5093344;28;20069;-78
2023/08/03 12:19:34;;;;;;;3.40;1.20;;;22.80;99.90;;;;;;5076660;28;20050;-79
2023/08/03 12:22:02;;;;;;;4.72;1.42;;;22.60;80.80;;;;;;5093567;28;20043;-78
2023/08/03 12:24:28;;;;;;;5.28;1.30;;;22.00;99.90;;;;;;5093742;28;20490;-78
2023/08/03 12:26:54;;;;;;;6.15;1.52;;;21.30;1.00;;;;;;5093585;28;20043;-78
2023/08/03 12:29:20;;;;;;;4.95;1.48;;;20.70;61.60;;;;;;5093478;28;20051;-78
2023/08/03 12:31:46;;;;;;;4.68;1.40;;;20.50;99.90;;;;;;5093070;28;20043;-78
2023/08/03 12:34:12;;;;;;;3.78;1.30;;;20.30;99.90;;;;;;5056547;28;20044;-78
2023/08/03 12:36:37;;;;;;;3.40;1.30;;;20.10;1.00;;;;;;5093186;28;20047;-78
2023/08/03 12:39:07;;;;;;;4.00;1.30;;;20.10;78.90;;;;;;5076289;28;20103;-78
2023/08/03 12:41:33;;;;;;;2.88;1.08;;;19.90;1.00;;;;;;5076299;28;20039;-78
2023/08/03 12:43:58;;;;;;;4.55;1.10;;;19.90;99.90;;;;;;5093139;28;20092;-78
2023/08/03 12:46:27;;;;;;;5.20;1.20;;;19.70;1.00;;;;;;5093347;28;20114;-78
2023/08/03 12:48:52;;;;;;;1.83;0.90;;;19.70;1.00;;;;;;5092650;28;20039;-78
2023/08/03 12:51:19;;;;;;;3.28;1.30;;;19.70;1.00;;;;;;5093065;28;20173;-78
2023/08/03 12:53:46;;;;;;;3.67;1.17;;;19.80;1.00;;;;;;5073117;28;20040;-78
2023/08/03 12:56:12;;;;;;;3.78;1.27;;;19.60;99.90;;;;;;5074938;28;20395;-78
2023/08/03 12:58:38;;;;;;;2.97;1.13;;;19.60;99.90;;;;;;5076332;28;20079;-78
2023/08/03 13:01:04;;;;;;;4.63;1.33;;;19.60;1.00;;;;;;5075164;28;20173;-78
2023/08/03 13:03:29;;;;;;;4.07;1.30;;;19.30;99.90;;;;;;5092772;28;20122;-78